Time;durP1;ratioP1;P1;durP2;ratioP2;P2;SDS_P1;SDS_P2;PMS_P1;PMS_P2;Temp;Humidity;BMP_temperature;BMP_pressure;BME280_temperature;BME280_humidity;BME280_pressure;Samples;Min_cycle;Max_cycle;Signal;HPM_P1;HPM_P2
2021/11/19 00:00:55;;;;;;;4.55;4.15;;;18.20;63.80;;;;;;5056626;28;20033;-25
2021/11/19 00:03:21;;;;;;;4.32;4.03;;;18.20;63.80;;;;;;5037944;28;20037;-27
2021/11/19 00:05:47;;;;;;;4.20;3.90;;;18.20;63.80;;;;;;5038298;28;20079;-20
2021/11/19 00:08:13;;;;;;;4.68;4.28;;;18.10;63.90;;;;;;5038329;28;20076;-22
2021/11/19 00:10:39;;;;;;;4.30;3.90;;;18.10;64.00;;;;;;5038245;28;20037;-22
2021/11/19 00:13:05;;;;;;;5.70;4.38;;;18.10;63.90;;;;;;5038016;28;20026;-26
2021/11/19 00:15:31;;;;;;;4.88;4.45;;;18.10;63.90;;;;;;5038308;28;20021;-24
2021/11/19 00:17:56;;;;;;;4.72;4.32;;;18.10;64.00;;;;;;5038021;28;20030;-23
2021/11/19 00:20:28;;;;;;;4.32;4.03;;;18.10;64.20;;;;;;5038056;28;20029;-28
2021/11/19 00:23:03;;;;;;;4.15;3.85;;;18.00;64.10;;;;;;5038057;28;20029;-24
2021/11/19 00:25:29;;;;;;;4.97;4.45;;;18.00;64.20;;;;;;5037977;28;20105;-26
2021/11/19 00:27:55;;;;;;;4.10;3.80;;;18.00;64.10;;;;;;5029417;28;20061;-23
2021/11/19 00:30:21;;;;;;;4.10;3.80;;;18.00;64.20;;;;;;5018114;28;20030;-21
2021/11/19 00:32:47;;;;;;;5.25;4.75;;;18.00;64.20;;;;;;5030955;28;20013;-23
2021/11/19 00:35:13;;;;;;;4.88;4.47;;;18.00;64.30;;;;;;5037671;28;20089;-24
2021/11/19 00:37:39;;;;;;;4.22;3.83;;;17.90;64.20;;;;;;5037666;28;20025;-21
2021/11/19 00:40:07;;;;;;;4.43;4.03;;;17.90;64.20;;;;;;5037739;28;20375;-24
2021/11/19 00:42:32;;;;;;;4.35;4.05;;;17.90;64.30;;;;;;5037090;28;20106;-20
2021/11/19 00:44:58;;;;;;;3.78;3.50;;;17.90;64.20;;;;;;5037550;28;20025;-25
2021/11/19 00:47:24;;;;;;;4.32;4.03;;;17.90;64.40;;;;;;5037367;28;20022;-27
2021/11/19 00:49:49;;;;;;;4.32;3.92;;;17.90;64.30;;;;;;5037334;28;20068;-20
2021/11/19 00:52:15;;;;;;;4.35;3.90;;;17.90;64.30;;;;;;5037501;28;20026;-25
2021/11/19 00:54:41;;;;;;;4.13;3.83;;;17.90;64.20;;;;;;5037704;28;20028;-22
2021/11/19 00:57:09;;;;;;;4.05;3.75;;;17.90;64.40;;;;;;5037450;28;20021;-26
2021/11/19 00:59:35;;;;;;;4.40;4.10;;;17.90;64.40;;;;;;5037364;28;20076;-26
2021/11/19 01:02:07;;;;;;;4.30;4.00;;;17.90;64.30;;;;;;5037342;28;20041;-27
2021/11/19 01:04:32;;;;;;;6.18;3.88;;;17.90;64.30;;;;;;5037102;28;20055;-22
2021/11/19 01:06:58;;;;;;;4.75;4.35;;;17.90;64.20;;;;;;5037293;28;20108;-21
2021/11/19 01:09:27;;;;;;;4.75;4.35;;;17.90;64.30;;;;;;5037261;28;20037;-27
2021/11/19 01:11:54;;;;;;;4.25;3.95;;;17.80;64.20;;;;;;5037106;28;20026;-23
2021/11/19 01:14:35;;;;;;;4.05;3.75;;;17.80;64.30;;;;;;5037175;28;20033;-29
2021/11/19 01:17:05;;;;;;;5.15;4.25;;;17.80;64.20;;;;;;5036891;28;20029;-23
2021/11/19 01:19:53;;;;;;;4.07;3.78;;;17.80;64.30;;;;;;5037194;28;20017;-23
2021/11/19 01:22:26;;;;;;;3.70;3.40;;;17.80;64.20;;;;;;5031571;28;20095;-24
2021/11/19 01:24:51;;;;;;;4.22;3.70;;;17.80;64.30;;;;;;5036979;28;20021;-22
2021/11/19 01:27:17;;;;;;;4.15;3.85;;;17.80;64.30;;;;;;5036912;28;20032;-20
2021/11/19 01:29:43;;;;;;;4.25;3.95;;;17.80;64.30;;;;;;5036809;28;20025;-24
2021/11/19 01:32:11;;;;;;;3.95;3.65;;;17.80;64.20;;;;;;5036718;28;20029;-24
2021/11/19 01:34:37;;;;;;;4.93;4.00;;;17.80;64.20;;;;;;5068766;28;20017;-22
2021/11/19 01:37:03;;;;;;;4.60;4.20;;;17.80;64.30;;;;;;5036926;28;20025;-28
2021/11/19 01:39:28;;;;;;;4.45;4.05;;;17.80;64.20;;;;;;5036872;28;20021;-31
2021/11/19 01:42:06;;;;;;;4.07;3.72;;;17.80;64.20;;;;;;5036744;28;20471;-24
2021/11/19 01:44:53;;;;;;;3.95;3.58;;;17.80;64.00;;;;;;5036714;28;20083;-21
2021/11/19 01:47:20;;;;;;;3.55;3.25;;;17.80;64.20;;;;;;5036204;28;20045;-25
2021/11/19 01:49:47;;;;;;;4.88;3.70;;;17.80;64.20;;;;;;5036618;28;20033;-22
2021/11/19 01:52:37;;;;;;;3.72;3.42;;;17.80;64.20;;;;;;5037328;28;20041;-23
2021/11/19 01:55:11;;;;;;;3.92;3.63;;;17.80;64.20;;;;;;5055942;28;20018;-21
2021/11/19 01:57:43;;;;;;;3.75;3.45;;;17.80;64.20;;;;;;5057893;28;20030;-22
2021/11/19 02:00:24;;;;;;;4.10;3.70;;;17.70;64.10;;;;;;5058320;28;20375;-23
2021/11/19 02:02:51;;;;;;;3.53;3.25;;;17.80;64.20;;;;;;5042912;28;20022;-24
2021/11/19 02:05:27;;;;;;;3.38;3.17;;;17.70;64.10;;;;;;5043020;28;20022;-28
2021/11/19 02:07:55;;;;;;;3.20;3.00;;;17.70;64.30;;;;;;5043155;28;20053;-26
2021/11/19 02:10:36;;;;;;;3.83;3.53;;;17.80;64.20;;;;;;5043132;28;20037;-24
2021/11/19 02:13:04;;;;;;;3.20;3.00;;;17.70;65.00;;;;;;5043063;28;20037;-27
2021/11/19 02:15:35;;;;;;;3.63;3.33;;;17.80;64.20;;;;;;5042858;28;20037;-24
2021/11/19 02:18:07;;;;;;;4.07;3.75;;;17.70;64.20;;;;;;5057861;28;20033;-24
2021/11/19 02:20:35;;;;;;;4.45;3.65;;;17.70;64.20;;;;;;5058270;28;20053;-23
2021/11/19 02:23:23;;;;;;;3.53;3.22;;;17.70;64.20;;;;;;5058355;28;20045;-23
2021/11/19 02:26:10;;;;;;;3.50;3.30;;;17.70;64.20;;;;;;5055532;28;20510;-22
2021/11/19 02:28:37;;;;;;;3.35;3.05;;;17.70;64.20;;;;;;5058300;28;20048;-22
2021/11/19 02:31:16;;;;;;;3.50;3.20;;;17.70;64.20;;;;;;5042717;28;20021;-27
2021/11/19 02:33:43;;;;;;;3.55;3.25;;;17.70;64.30;;;;;;5042843;28;20022;-23
2021/11/19 02:36:11;;;;;;;3.40;3.10;;;17.60;64.30;;;;;;5042536;28;20013;-20
2021/11/19 02:38:56;;;;;;;3.65;3.20;;;17.70;64.30;;;;;;5042633;28;20022;-22
2021/11/19 02:41:22;;;;;;;;;;;17.70;64.20;;;;;;5057706;28;20427;-20
2021/11/19 02:43:51;;;;;;;3.53;3.22;;;17.70;64.20;;;;;;5042599;28;19912;-25
2021/11/19 02:46:18;;;;;;;3.10;2.90;;;17.70;64.20;;;;;;5042300;28;20128;-22
2021/11/19 02:48:44;;;;;;;3.33;3.05;;;17.70;64.20;;;;;;5042670;28;20045;-23
2021/11/19 02:51:10;;;;;;;3.42;2.83;;;17.70;64.20;;;;;;5042628;28;20029;-27
2021/11/19 02:53:36;;;;;;;3.65;3.35;;;17.70;64.20;;;;;;5042756;28;20105;-29
2021/11/19 02:56:02;;;;;;;3.65;3.35;;;17.60;64.20;;;;;;5042699;28;20063;-23
2021/11/19 02:58:33;;;;;;;3.20;2.90;;;17.60;64.30;;;;;;5042642;28;20105;-25
2021/11/19 03:01:08;;;;;;;3.33;3.10;;;17.60;64.20;;;;;;5041013;28;20034;-23
2021/11/19 03:03:34;;;;;;;3.28;2.97;;;17.60;64.30;;;;;;5042262;28;20030;-27
2021/11/19 03:06:00;;;;;;;3.17;2.95;;;17.60;64.30;;;;;;5038677;28;20022;-24
2021/11/19 03:08:26;;;;;;;2.85;2.65;;;17.60;64.30;;;;;;5039507;28;20429;-25
2021/11/19 03:10:55;;;;;;;3.28;2.50;;;17.60;64.30;;;;;;5039422;28;20037;-26
2021/11/19 03:13:21;;;;;;;3.03;2.83;;;17.60;64.30;;;;;;5039376;28;20026;-24
2021/11/19 03:15:47;;;;;;;3.17;2.80;;;17.60;64.30;;;;;;5039180;28;20108;-25
2021/11/19 03:18:13;;;;;;;3.17;2.97;;;17.60;64.40;;;;;;5039469;28;20029;-27
2021/11/19 03:20:40;;;;;;;2.80;2.60;;;17.60;64.30;;;;;;5039174;28;20515;-24
2021/11/19 03:23:06;;;;;;;3.80;3.20;;;17.60;64.30;;;;;;5039247;28;20029;-24
2021/11/19 03:25:33;;;;;;;3.15;2.95;;;17.60;64.30;;;;;;5039165;28;20387;-21
2021/11/19 03:27:59;;;;;;;2.80;2.60;;;17.60;64.40;;;;;;5039148;28;20092;-21
2021/11/19 03:30:25;;;;;;;2.78;2.58;;;17.60;64.40;;;;;;5038850;28;20038;-25
2021/11/19 03:32:51;;;;;;;3.22;3.03;;;17.60;64.40;;;;;;5039015;28;20072;-25
2021/11/19 03:35:17;;;;;;;2.80;2.60;;;17.50;64.30;;;;;;5038826;28;20014;-22
2021/11/19 03:37:44;;;;;;;3.00;2.80;;;17.60;65.10;;;;;;5038813;28;20429;-26
2021/11/19 03:40:10;;;;;;;2.83;2.63;;;17.60;64.40;;;;;;5038797;28;20037;-25
2021/11/19 03:42:36;;;;;;;2.72;2.53;;;17.60;64.30;;;;;;5038717;28;20026;-25
2021/11/19 03:45:02;;;;;;;3.75;2.75;;;17.60;64.40;;;;;;5038836;28;20047;-29
2021/11/19 03:47:31;;;;;;;3.00;2.80;;;17.60;64.40;;;;;;5038486;28;20017;-26
2021/11/19 03:49:57;;;;;;;2.83;2.63;;;17.60;64.40;;;;;;5038530;28;20056;-27
2021/11/19 03:52:32;;;;;;;3.08;2.78;;;17.50;64.40;;;;;;5038491;28;20033;-25
2021/11/19 03:55:03;;;;;;;2.90;2.70;;;17.60;64.40;;;;;;5038594;28;20030;-28
2021/11/19 03:57:28;;;;;;;2.80;2.60;;;17.60;64.30;;;;;;5038404;28;20022;-24
2021/11/19 03:59:54;;;;;;;3.25;2.95;;;17.50;64.40;;;;;;5038545;28;20079;-24
2021/11/19 04:02:20;;;;;;;2.85;2.65;;;17.50;64.40;;;;;;5038460;28;20428;-23
2021/11/19 04:04:46;;;;;;;2.50;2.30;;;17.50;64.40;;;;;;5038207;28;20021;-25
2021/11/19 04:07:13;;;;;;;2.85;2.65;;;17.50;64.40;;;;;;5038463;28;20032;-24
2021/11/19 04:09:39;;;;;;;2.65;2.45;;;17.50;65.20;;;;;;5038142;28;20013;-24
2021/11/19 04:12:05;;;;;;;2.72;2.53;;;17.50;64.40;;;;;;5038063;28;20040;-22
2021/11/19 04:14:31;;;;;;;2.70;2.50;;;17.50;64.40;;;;;;5038482;28;20035;-26
2021/11/19 04:16:57;;;;;;;2.72;2.53;;;17.50;64.50;;;;;;5036769;28;20614;-26
2021/11/19 04:19:23;;;;;;;2.28;2.13;;;17.50;64.50;;;;;;5038248;28;20017;-24
2021/11/19 04:21:50;;;;;;;2.75;2.55;;;17.50;64.40;;;;;;5038163;28;20040;-24
2021/11/19 04:24:19;;;;;;;2.40;2.20;;;17.50;64.50;;;;;;5038006;28;20029;-20
2021/11/19 04:26:45;;;;;;;2.30;2.20;;;17.50;64.50;;;;;;5038112;28;20034;-25
2021/11/19 04:29:10;;;;;;;2.22;2.13;;;17.50;64.60;;;;;;5037931;28;20028;-23
2021/11/19 04:31:36;;;;;;;2.75;2.55;;;17.50;64.50;;;;;;5037696;28;20034;-26
2021/11/19 04:34:04;;;;;;;2.53;2.33;;;17.50;64.60;;;;;;5037753;28;20025;-22
2021/11/19 04:36:30;;;;;;;2.63;2.38;;;17.50;64.60;;;;;;5018141;28;20485;-22
2021/11/19 04:38:55;;;;;;;2.80;2.60;;;17.50;64.60;;;;;;5033930;28;20021;-27
2021/11/19 04:41:21;;;;;;;2.33;2.20;;;17.50;64.70;;;;;;5037576;28;20037;-26
2021/11/19 04:43:47;;;;;;;2.58;2.38;;;17.50;64.60;;;;;;5037675;28;20063;-22
2021/11/19 04:46:12;;;;;;;2.50;2.40;;;17.50;64.60;;;;;;5037294;28;20132;-23
2021/11/19 04:48:38;;;;;;;2.60;2.40;;;17.50;64.70;;;;;;5037556;28;20095;-22
2021/11/19 04:51:12;;;;;;;2.80;2.60;;;17.50;64.80;;;;;;5037395;28;20033;-26
2021/11/19 04:53:38;;;;;;;;;;;17.50;64.80;;;;;;5038002;28;20019;-29
2021/11/19 04:56:04;;;;;;;2.65;2.45;;;17.40;64.60;;;;;;5037401;28;19913;-23
2021/11/19 04:58:30;;;;;;;2.70;2.50;;;17.50;64.90;;;;;;5052800;28;20021;-28
2021/11/19 05:01:00;;;;;;;2.95;2.75;;;17.50;64.90;;;;;;5037206;28;20459;-25
2021/11/19 05:03:26;;;;;;;3.05;2.85;;;17.40;65.00;;;;;;5037252;28;20099;-25
2021/11/19 05:05:52;;;;;;;2.90;2.75;;;17.40;65.00;;;;;;5037145;28;20059;-24
2021/11/19 05:08:17;;;;;;;2.50;2.40;;;17.40;65.00;;;;;;5037295;28;20029;-27
2021/11/19 05:10:44;;;;;;;2.97;2.78;;;17.40;65.00;;;;;;5037365;28;20029;-29
2021/11/19 05:13:10;;;;;;;2.80;2.60;;;17.40;65.00;;;;;;5052466;28;20029;-23
2021/11/19 05:15:36;;;;;;;3.10;2.90;;;17.40;65.10;;;;;;5037014;28;20033;-23
2021/11/19 05:18:02;;;;;;;2.75;2.60;;;17.40;65.00;;;;;;5037132;28;20027;-20
2021/11/19 05:20:28;;;;;;;3.00;2.80;;;17.40;65.00;;;;;;5036980;28;20081;-23
2021/11/19 05:22:54;;;;;;;2.88;2.67;;;17.40;65.00;;;;;;5037090;28;20060;-25
2021/11/19 05:25:21;;;;;;;2.80;2.70;;;17.40;65.10;;;;;;5037203;28;20501;-28
2021/11/19 05:27:47;;;;;;;2.72;2.53;;;17.40;65.00;;;;;;5036818;28;20034;-23
2021/11/19 05:30:13;;;;;;;2.55;2.35;;;17.40;65.00;;;;;;5036893;28;20540;-24
2021/11/19 05:32:39;;;;;;;2.60;2.50;;;17.40;65.00;;;;;;5036680;28;20075;-26
2021/11/19 05:35:05;;;;;;;2.45;2.28;;;17.40;65.00;;;;;;5036756;28;20021;-23
2021/11/19 05:37:31;;;;;;;2.70;2.50;;;17.40;65.10;;;;;;5036911;28;20013;-25
2021/11/19 05:39:57;;;;;;;2.90;2.70;;;17.40;65.10;;;;;;5036852;28;20035;-26
2021/11/19 05:42:22;;;;;;;2.80;2.60;;;17.40;65.20;;;;;;5036789;28;20025;-24
2021/11/19 05:44:48;;;;;;;2.75;2.55;;;17.40;65.00;;;;;;5036949;28;20501;-27
2021/11/19 05:47:13;;;;;;;2.40;2.20;;;17.30;65.10;;;;;;5036163;28;20042;-24
2021/11/19 05:49:39;;;;;;;2.78;2.58;;;17.40;65.00;;;;;;5036631;28;20483;-24
2021/11/19 05:52:06;;;;;;;2.72;2.53;;;17.30;64.90;;;;;;5036671;28;20022;-29
2021/11/19 05:54:32;;;;;;;2.20;2.10;;;17.30;65.00;;;;;;5036637;28;20021;-27
2021/11/19 05:56:59;;;;;;;2.00;1.90;;;17.40;65.00;;;;;;5036619;28;20084;-24
2021/11/19 05:59:24;;;;;;;2.20;2.10;;;17.30;65.00;;;;;;5036651;28;20032;-24
2021/11/19 06:01:50;;;;;;;2.78;2.25;;;17.40;65.00;;;;;;5036636;28;21118;-26
2021/11/19 06:04:15;;;;;;;2.50;2.30;;;17.30;65.00;;;;;;5036246;28;20048;-21
2021/11/19 06:06:43;;;;;;;2.20;2.00;;;17.40;65.10;;;;;;5036732;28;20026;-29
2021/11/19 06:09:14;;;;;;;1.92;1.83;;;17.40;64.80;;;;;;5036738;28;20573;-26
2021/11/19 06:11:42;;;;;;;1.70;1.60;;;17.50;64.80;;;;;;5036496;28;20052;-22
2021/11/19 06:14:12;;;;;;;2.08;1.98;;;17.50;65.00;;;;;;5036460;28;20028;-23
2021/11/19 06:16:40;;;;;;;2.10;2.00;;;17.50;64.80;;;;;;5051317;28;20014;-25
2021/11/19 06:19:13;;;;;;;2.05;1.83;;;17.60;65.00;;;;;;5051145;28;20021;-24
2021/11/19 06:21:48;;;;;;;1.73;1.63;;;17.50;64.80;;;;;;5051441;28;20364;-23
2021/11/19 06:24:16;;;;;;;2.25;2.05;;;17.50;65.00;;;;;;5051325;28;20038;-22
2021/11/19 06:26:43;;;;;;;2.25;2.15;;;17.60;64.60;;;;;;5051474;28;20402;-27
2021/11/19 06:29:09;;;;;;;1.92;1.83;;;17.60;64.60;;;;;;5051654;28;20101;-24
2021/11/19 06:31:37;;;;;;;2.03;1.92;;;17.70;64.40;;;;;;5036099;28;20021;-26
2021/11/19 06:34:02;;;;;;;2.00;1.90;;;17.70;64.60;;;;;;5034565;28;20097;-21
2021/11/19 06:36:29;;;;;;;2.08;1.98;;;17.70;64.60;;;;;;5028284;28;20498;-28
2021/11/19 06:38:55;;;;;;;1.77;1.67;;;17.70;65.00;;;;;;5027081;28;20026;-27
2021/11/19 06:41:20;;;;;;;1.85;1.75;;;17.70;65.00;;;;;;5038385;28;20044;-25
2021/11/19 06:43:46;;;;;;;1.50;1.40;;;17.70;64.50;;;;;;5034006;28;20402;-30
2021/11/19 06:46:12;;;;;;;2.40;2.10;;;17.70;64.50;;;;;;5032596;28;20061;-27
2021/11/19 06:48:38;;;;;;;2.30;2.10;;;17.70;64.70;;;;;;5035883;28;20537;-20
2021/11/19 06:51:04;;;;;;;1.67;1.38;;;17.70;65.00;;;;;;5028407;28;20049;-24
2021/11/19 06:53:31;;;;;;;2.22;2.03;;;17.70;65.00;;;;;;5035780;28;20033;-22
2021/11/19 06:55:57;;;;;;;1.63;1.52;;;17.70;65.00;;;;;;5053656;28;20099;-22
2021/11/19 06:58:23;;;;;;;1.80;1.70;;;17.70;64.80;;;;;;5039883;28;20029;-25
2021/11/19 07:00:49;;;;;;;1.65;1.55;;;17.70;64.70;;;;;;5038893;28;20544;-21
2021/11/19 07:03:15;;;;;;;1.70;1.60;;;17.70;64.80;;;;;;5019920;28;20026;-28
2021/11/19 07:05:40;;;;;;;1.75;1.65;;;17.70;64.90;;;;;;5019509;28;20517;-20
2021/11/19 07:08:07;;;;;;;1.85;1.75;;;17.70;64.80;;;;;;4674539;28;10000612;-24
2021/11/19 07:10:33;;;;;;;2.45;1.92;;;17.70;64.90;;;;;;5030364;28;20037;-25
2021/11/19 07:12:58;;;;;;;1.60;1.50;;;17.70;64.80;;;;;;5043137;28;20066;-26
2021/11/19 07:15:24;;;;;;;1.60;1.50;;;17.70;64.80;;;;;;5037635;28;20032;-20
2021/11/19 07:17:50;;;;;;;1.50;1.40;;;17.80;64.90;;;;;;5048204;28;20483;-23
2021/11/19 07:20:19;;;;;;;1.50;1.40;;;17.80;65.00;;;;;;5027623;28;20400;-24
2021/11/19 07:22:44;;;;;;;1.73;1.50;;;17.80;65.00;;;;;;5032919;28;20025;-22
2021/11/19 07:25:12;;;;;;;1.73;1.63;;;17.80;65.10;;;;;;5044992;28;20437;-20
2021/11/19 07:27:38;;;;;;;3.15;1.77;;;17.80;65.10;;;;;;5027565;28;20065;-31
2021/11/19 07:30:05;;;;;;;1.80;1.50;;;17.80;65.30;;;;;;5030503;28;20040;-29
2021/11/19 07:32:31;;;;;;;1.50;1.40;;;17.90;65.00;;;;;;5019434;28;20684;-25
2021/11/19 07:34:56;;;;;;;2.70;2.00;;;17.80;65.40;;;;;;5007242;28;20039;-28
2021/11/19 07:37:23;;;;;;;1.13;1.13;;;17.90;65.40;;;;;;5024761;28;20057;-28
2021/11/19 07:39:51;;;;;;;1.65;1.55;;;17.90;65.20;;;;;;5027495;28;20045;-27
2021/11/19 07:42:16;;;;;;;1.65;1.55;;;17.90;65.20;;;;;;5020757;28;20041;-28
2021/11/19 07:44:42;;;;;;;1.70;1.60;;;17.90;66.10;;;;;;5005697;28;20041;-24
2021/11/19 07:47:08;;;;;;;1.65;1.55;;;17.90;65.30;;;;;;5045945;28;20045;-25
2021/11/19 07:49:33;;;;;;;1.90;1.80;;;17.90;65.40;;;;;;5046153;28;20041;-24
2021/11/19 07:51:59;;;;;;;1.52;1.42;;;17.90;65.60;;;;;;5036431;28;20069;-22
2021/11/19 07:54:24;;;;;;;1.50;1.30;;;17.90;65.60;;;;;;5019928;28;20050;-24
2021/11/19 07:56:50;;;;;;;1.35;1.25;;;17.90;65.50;;;;;;5043814;28;20036;-27
2021/11/19 07:59:29;;;;;;;1.65;1.55;;;18.00;65.50;;;;;;5056431;28;20055;-27
2021/11/19 08:01:59;;;;;;;1.40;1.25;;;18.00;65.50;;;;;;5040948;28;20045;-25
2021/11/19 08:04:24;;;;;;;3.97;1.20;;;18.00;65.40;;;;;;5038725;28;20095;-24
2021/11/19 08:06:51;;;;;;;3.95;1.25;;;18.00;65.50;;;;;;5037019;28;20045;-32
2021/11/19 08:09:16;;;;;;;2.10;1.20;;;18.00;65.50;;;;;;5036045;28;20046;-27
2021/11/19 08:11:42;;;;;;;1.20;1.10;;;18.00;65.40;;;;;;5021500;28;20050;-24
2021/11/19 08:14:08;;;;;;;2.22;1.27;;;18.00;65.50;;;;;;5029124;28;20502;-26
2021/11/19 08:16:48;;;;;;;1.45;1.35;;;18.00;65.40;;;;;;5034881;28;20424;-23
2021/11/19 08:19:24;;;;;;;1.70;1.40;;;18.00;65.50;;;;;;5053453;28;20520;-28
2021/11/19 08:21:49;;;;;;;1.15;1.15;;;18.00;65.50;;;;;;5056348;28;20048;-29
2021/11/19 08:24:15;;;;;;;2.22;1.40;;;18.00;65.50;;;;;;5055965;28;20045;-25
2021/11/19 08:26:43;;;;;;;1.50;1.40;;;18.00;65.50;;;;;;5037587;28;20037;-26
2021/11/19 08:29:21;;;;;;;1.40;1.10;;;18.00;65.50;;;;;;5014250;28;20050;-33
2021/11/19 08:31:47;;;;;;;1.20;1.10;;;18.00;65.50;;;;;;5010170;28;20134;-24
2021/11/19 08:34:12;;;;;;;1.67;1.40;;;18.10;65.50;;;;;;5013741;28;20085;-26
2021/11/19 08:36:38;;;;;;;1.33;1.23;;;18.10;65.40;;;;;;5008585;28;20714;-24
2021/11/19 08:39:06;;;;;;;1.10;1.00;;;18.00;65.40;;;;;;5015455;28;20050;-28
2021/11/19 08:41:31;;;;;;;1.38;1.20;;;18.10;65.40;;;;;;5035770;28;20421;-28
2021/11/19 08:43:59;;;;;;;1.38;1.27;;;18.10;65.30;;;;;;5036365;28;20057;-23
2021/11/19 08:46:30;;;;;;;1.20;1.10;;;18.10;65.30;;;;;;5035070;28;20049;-29
2021/11/19 08:49:00;;;;;;;1.25;1.15;;;18.10;65.30;;;;;;5025571;28;20052;-33
2021/11/19 08:51:27;;;;;;;1.38;1.27;;;18.10;65.10;;;;;;5004257;28;20046;-27
2021/11/19 08:53:54;;;;;;;2.15;1.38;;;18.10;65.20;;;;;;5009415;28;20045;-31
2021/11/19 08:56:20;;;;;;;1.73;1.05;;;18.10;65.10;;;;;;5027881;28;20048;-24
2021/11/19 08:58:46;;;;;;;1.10;1.10;;;18.10;65.10;;;;;;5048656;28;20485;-20
2021/11/19 09:01:13;;;;;;;1.70;1.23;;;18.10;65.00;;;;;;5036608;28;20052;-29
2021/11/19 09:03:39;;;;;;;0.95;0.90;;;18.10;65.00;;;;;;5026480;28;20058;-28
2021/11/19 09:06:09;;;;;;;1.30;1.20;;;18.10;65.00;;;;;;5018389;28;20591;-23
2021/11/19 09:08:35;;;;;;;0.95;0.95;;;18.20;65.10;;;;;;5025423;28;20045;-23
2021/11/19 09:11:01;;;;;;;0.98;0.98;;;18.20;64.90;;;;;;5015707;28;20045;-30
2021/11/19 09:13:28;;;;;;;1.30;1.20;;;18.20;64.80;;;;;;5010880;28;20399;-27
2021/11/19 09:15:56;;;;;;;1.35;1.25;;;18.20;64.80;;;;;;5029570;28;20041;-25
2021/11/19 09:18:43;;;;;;;1.30;1.20;;;18.20;64.80;;;;;;5054757;28;20049;-28
2021/11/19 09:21:25;;;;;;;1.38;1.27;;;18.20;64.80;;;;;;5009859;28;20100;-26
2021/11/19 09:23:59;;;;;;;1.50;1.40;;;18.30;64.70;;;;;;5021093;28;20100;-28
2021/11/19 09:26:40;;;;;;;1.15;1.05;;;18.30;64.70;;;;;;5021283;28;20050;-24
2021/11/19 09:29:15;;;;;;;1.30;1.20;;;18.30;64.70;;;;;;5019585;28;21381;-28
2021/11/19 09:31:41;;;;;;;1.40;1.30;;;18.30;64.50;;;;;;5002189;28;20077;-30
2021/11/19 09:34:07;;;;;;;1.10;1.00;;;18.40;64.50;;;;;;5007037;28;20049;-27
2021/11/19 09:36:33;;;;;;;1.40;1.30;;;18.40;64.40;;;;;;5007479;28;20049;-20
2021/11/19 09:38:59;;;;;;;1.52;1.42;;;18.40;64.30;;;;;;5009756;28;20052;-22
2021/11/19 09:41:31;;;;;;;1.95;1.67;;;18.50;64.20;;;;;;5019321;28;20057;-22
2021/11/19 09:44:14;;;;;;;3.42;1.55;;;18.50;64.20;;;;;;5020943;28;20049;-21
2021/11/19 09:46:46;;;;;;;2.33;1.45;;;18.60;64.10;;;;;;5033006;28;21311;-24
2021/11/19 09:49:41;;;;;;;1.38;1.27;;;18.60;64.00;;;;;;5020187;28;20061;-25
2021/11/19 09:52:23;;;;;;;3.90;1.60;;;18.60;63.80;;;;;;5032454;28;20049;-27
2021/11/19 09:54:54;;;;;;;3.00;1.58;;;18.60;63.80;;;;;;5034479;28;20526;-27
2021/11/19 09:58:05;;;;;;;1.58;1.48;;;18.60;63.70;;;;;;5020206;28;20050;-27
2021/11/19 10:00:58;;;;;;;3.00;1.88;;;18.70;63.70;;;;;;5018851;28;20057;-28
2021/11/19 10:03:34;;;;;;;2.03;1.63;;;18.70;63.70;;;;;;5033354;28;20125;-25
2021/11/19 10:06:05;;;;;;;1.80;1.67;;;18.70;63.60;;;;;;5036064;28;20168;-26
2021/11/19 10:08:47;;;;;;;1.70;1.60;;;18.70;63.50;;;;;;5032335;28;20056;-24
2021/11/19 10:11:18;;;;;;;1.70;1.60;;;18.80;63.50;;;;;;5020639;28;20076;-26
2021/11/19 10:14:20;;;;;;;1.67;1.58;;;18.80;63.40;;;;;;5021646;28;20845;-24
2021/11/19 10:17:09;;;;;;;2.05;1.90;;;18.80;63.30;;;;;;5024057;28;20069;-27
2021/11/19 10:19:40;;;;;;;3.95;1.75;;;18.80;63.40;;;;;;5021163;28;20060;-30
2021/11/19 10:22:26;;;;;;;1.60;1.50;;;18.80;63.30;;;;;;5023922;28;20091;-26
2021/11/19 10:25:07;;;;;;;1.85;1.50;;;18.80;63.20;;;;;;5031644;28;20129;-27
2021/11/19 10:27:35;;;;;;;2.42;1.60;;;18.90;63.20;;;;;;5010791;28;20057;-28
2021/11/19 10:30:31;;;;;;;2.47;1.80;;;18.90;63.10;;;;;;5021804;28;20144;-25
2021/11/19 10:33:05;;;;;;;2.15;1.50;;;18.90;63.20;;;;;;5025671;28;20045;-22
2021/11/19 10:35:51;;;;;;;1.40;1.30;;;18.90;63.00;;;;;;5022520;28;20045;-33
2021/11/19 10:38:35;;;;;;;1.38;1.27;;;19.00;63.00;;;;;;5019432;28;20045;-27
2021/11/19 10:41:36;;;;;;;1.35;1.25;;;18.90;63.00;;;;;;5025976;28;20041;-22
2021/11/19 10:44:39;;;;;;;1.50;1.40;;;19.00;62.90;;;;;;5034287;28;20057;-28
2021/11/19 10:47:04;;;;;;;1.67;1.58;;;19.00;63.00;;;;;;5023539;28;20080;-26
2021/11/19 10:49:55;;;;;;;1.73;1.50;;;19.00;62.80;;;;;;5022682;28;20065;-28
2021/11/19 10:52:48;;;;;;;2.20;1.70;;;19.00;62.80;;;;;;5022754;28;20057;-26
2021/11/19 10:55:51;;;;;;;1.58;1.42;;;19.00;62.90;;;;;;5030249;28;20058;-29
2021/11/19 10:58:31;;;;;;;2.10;1.90;;;19.00;63.00;;;;;;5028595;28;20057;-24
2021/11/19 11:01:00;;;;;;;1.75;1.48;;;19.10;62.90;;;;;;5027925;28;20113;-29
2021/11/19 11:03:31;;;;;;;3.05;1.52;;;19.10;62.50;;;;;;5022814;28;20045;-25
2021/11/19 11:06:08;;;;;;;1.73;1.60;;;19.10;62.60;;;;;;5022724;28;20049;-26
2021/11/19 11:08:36;;;;;;;1.90;1.75;;;19.10;62.40;;;;;;5021757;28;20156;-27
2021/11/19 11:11:07;;;;;;;1.60;1.50;;;19.10;62.30;;;;;;5020553;28;20757;-21
2021/11/19 11:13:37;;;;;;;1.50;1.38;;;19.10;62.30;;;;;;5005144;28;20057;-25
2021/11/19 11:16:27;;;;;;;1.95;1.50;;;19.10;62.30;;;;;;5026647;28;20053;-26
2021/11/19 11:19:10;;;;;;;2.70;1.70;;;19.20;62.30;;;;;;5012651;28;20176;-27
2021/11/19 11:21:42;;;;;;;1.92;1.30;;;19.20;62.30;;;;;;5038140;28;20049;-29
2021/11/19 11:24:55;;;;;;;2.90;1.70;;;19.10;62.30;;;;;;5012635;28;20116;-28
2021/11/19 11:27:47;;;;;;;2.67;1.27;;;19.20;62.50;;;;;;5001482;28;20076;-25
2021/11/19 11:30:15;;;;;;;1.83;1.73;;;19.20;62.40;;;;;;4979576;28;20048;-25
2021/11/19 11:33:03;;;;;;;1.48;1.38;;;19.20;62.40;;;;;;5012586;28;20045;-29
2021/11/19 11:35:45;;;;;;;1.80;1.70;;;19.30;62.50;;;;;;5013416;28;20042;-21
2021/11/19 11:38:27;;;;;;;1.50;1.40;;;19.30;62.50;;;;;;5013989;28;21709;-27
2021/11/19 11:41:02;;;;;;;1.67;1.58;;;19.30;62.50;;;;;;5021214;28;20056;-26
2021/11/19 11:43:30;;;;;;;3.28;1.83;;;19.30;62.60;;;;;;5023679;28;20122;-24
2021/11/19 11:45:59;;;;;;;1.50;1.40;;;19.20;62.40;;;;;;5021683;28;20065;-24
2021/11/19 11:48:53;;;;;;;1.65;1.55;;;19.30;62.50;;;;;;4672309;28;9999803;-22
2021/11/19 11:51:21;;;;;;;1.80;1.60;;;19.30;62.50;;;;;;5023344;28;21341;-27
2021/11/19 11:54:14;;;;;;;2.17;2.08;;;19.30;62.40;;;;;;5016939;28;20042;-26
2021/11/19 11:56:42;;;;;;;2.85;2.65;;;19.30;62.50;;;;;;5033733;28;20073;-24
2021/11/19 11:59:12;;;;;;;2.35;2.15;;;19.40;62.30;;;;;;5019627;28;20423;-26
2021/11/19 12:02:01;;;;;;;3.13;2.92;;;19.40;62.00;;;;;;5025365;28;20049;-27
2021/11/19 12:04:48;;;;;;;3.33;3.13;;;19.40;62.20;;;;;;5019175;28;20077;-21
2021/11/19 12:07:52;;;;;;;4.47;4.18;;;19.40;62.40;;;;;;5016640;28;20042;-26
2021/11/19 12:10:30;;;;;;;4.20;3.90;;;19.40;62.10;;;;;;5057392;28;20072;-21
2021/11/19 12:13:24;;;;;;;4.10;3.80;;;19.40;62.10;;;;;;5020707;28;20038;-25
2021/11/19 12:16:11;;;;;;;4.88;4.47;;;19.40;62.20;;;;;;4994869;28;20037;-24
2021/11/19 12:19:13;;;;;;;4.55;4.25;;;19.40;62.20;;;;;;5027393;28;20063;-27
2021/11/19 12:21:56;;;;;;;4.32;3.97;;;19.40;62.00;;;;;;5014684;28;20037;-23
2021/11/19 12:24:36;;;;;;;4.28;3.88;;;19.40;62.20;;;;;;5053940;28;20056;-24
2021/11/19 12:27:14;;;;;;;4.20;3.90;;;19.40;62.20;;;;;;5016291;28;20080;-24
2021/11/19 12:30:08;;;;;;;3.92;3.72;;;19.50;62.20;;;;;;5008334;28;20045;-27
2021/11/19 12:32:59;;;;;;;4.22;3.92;;;19.40;62.20;;;;;;5008251;28;20047;-24
2021/11/19 12:35:44;;;;;;;3.67;3.42;;;19.50;62.10;;;;;;5019615;28;20490;-23
2021/11/19 12:38:19;;;;;;;4.10;3.70;;;19.50;62.20;;;;;;5010777;28;20046;-26
2021/11/19 12:40:50;;;;;;;3.88;3.58;;;19.60;61.90;;;;;;4999936;28;20434;-30
2021/11/19 12:43:22;;;;;;;3.55;3.33;;;19.50;61.90;;;;;;5010965;28;20042;-31
2021/11/19 12:46:28;;;;;;;3.33;3.13;;;19.50;62.00;;;;;;5005570;28;20608;-28
2021/11/19 12:49:21;;;;;;;3.50;3.25;;;19.50;62.00;;;;;;5006763;28;20061;-26
2021/11/19 12:51:54;;;;;;;3.30;3.10;;;19.50;62.00;;;;;;5019694;28;20046;-31
2021/11/19 12:54:41;;;;;;;4.00;3.70;;;19.50;62.00;;;;;;5037209;28;20037;-26
2021/11/19 12:57:25;;;;;;;3.63;3.33;;;19.60;62.10;;;;;;5009277;28;20108;-29
2021/11/19 13:00:14;;;;;;;3.55;3.35;;;19.60;62.80;;;;;;5004044;28;20046;-22
2021/11/19 13:02:49;;;;;;;3.35;3.15;;;19.60;61.90;;;;;;5020364;28;20072;-26
2021/11/19 13:05:24;;;;;;;3.20;3.00;;;19.60;62.20;;;;;;5040971;28;20087;-24
2021/11/19 13:08:06;;;;;;;3.10;2.90;;;19.50;62.20;;;;;;5013342;28;20388;-31
2021/11/19 13:10:44;;;;;;;3.05;2.85;;;19.50;62.40;;;;;;5014577;28;20137;-25